Time;durP1;ratioP1;P1;durP2;ratioP2;P2;SDS_P1;SDS_P2;PMS_P1;PMS_P2;Temp;Humidity;BMP_temperature;BMP_pressure;BME280_temperature;BME280_humidity;BME280_pressure;Samples;Min_cycle;Max_cycle;Signal;HPM_P1;HPM_P2
2022/09/04 00:00:19;;;;;;;3.40;1.48;;;;;;;26.63;57.48;98792.19;2101450;28;20051;-48
2022/09/04 00:01:30;;;;;;;3.35;1.40;;;;;;;26.66;57.64;98786.22;2100768;28;20052;-49
2022/09/04 00:03:00;;;;;;;1.55;1.27;;;;;;;26.62;57.40;98787.81;2103643;28;20044;-48
2022/09/04 00:04:12;;;;;;;1.08;1.02;;;;;;;26.59;57.35;98782.88;2100012;28;20071;-51
2022/09/04 00:05:20;;;;;;;2.17;1.70;;;;;;;26.62;57.54;98782.38;2097906;28;20139;-48
2022/09/04 00:06:28;;;;;;;3.75;2.10;;;;;;;26.63;57.35;98781.28;2101776;28;20077;-50
2022/09/04 00:07:38;;;;;;;2.58;1.95;;;;;;;26.63;57.74;98786.72;2099583;27;20048;-50
2022/09/04 00:08:50;;;;;;;2.40;1.48;;;;;;;26.65;57.44;98781.88;2102357;27;20051;-53
2022/09/04 00:10:08;;;;;;;2.05;1.50;;;;;;;26.62;57.47;98782.38;2101466;27;20055;-49
2022/09/04 00:11:25;;;;;;;2.05;1.27;;;;;;;26.61;57.40;98778.03;2104051;28;20092;-51
2022/09/04 00:12:34;;;;;;;3.58;1.50;;;;;;;26.62;57.55;98772.31;2106492;28;20429;-50
2022/09/04 00:13:39;;;;;;;1.42;1.20;;;;;;;26.63;57.45;98773.13;2101768;28;20067;-48
2022/09/04 00:14:45;;;;;;;1.48;1.35;;;;;;;26.64;57.39;98763.91;2104204;28;20107;-51
2022/09/04 00:15:53;;;;;;;3.33;1.75;;;;;;;26.63;57.46;98754.91;2100248;28;20052;-49
2022/09/04 00:17:00;;;;;;;1.45;1.35;;;;;;;26.65;57.31;98751.94;2100554;28;20081;-50
2022/09/04 00:18:08;;;;;;;2.75;1.65;;;;;;;26.63;57.46;98751.38;2099159;28;20529;-50
2022/09/04 00:19:16;;;;;;;2.38;1.80;;;;;;;26.64;57.43;98750.31;2102701;28;20052;-49
2022/09/04 00:20:27;;;;;;;1.67;1.58;;;;;;;26.64;57.23;98739.44;2102293;28;20130;-50
2022/09/04 00:21:35;;;;;;;3.30;1.52;;;;;;;26.63;57.80;98735.88;2102429;28;20051;-50
2022/09/04 00:22:46;;;;;;;2.55;1.70;;;;;;;26.65;57.76;98743.78;2101924;28;20146;-48
2022/09/04 00:23:52;;;;;;;1.52;1.42;;;;;;;26.63;57.43;98751.38;2104138;28;20485;-50
2022/09/04 00:25:01;;;;;;;1.30;1.20;;;;;;;26.62;57.53;98761.44;2103673;28;20048;-48
2022/09/04 00:26:09;;;;;;;2.30;1.55;;;;;;;26.62;57.40;98756.00;2104008;28;20063;-49
2022/09/04 00:27:16;;;;;;;3.03;1.50;;;;;;;26.64;57.54;98764.72;2104370;28;20071;-49
2022/09/04 00:28:30;;;;;;;1.60;1.25;;;;;;;26.65;56.95;98760.94;2104048;28;20083;-50
2022/09/04 00:29:42;;;;;;;2.20;1.67;;;;;;;26.63;57.37;98745.94;2103914;28;20055;-52
2022/09/04 00:30:52;;;;;;;1.55;1.42;;;;;;;26.63;57.14;98762.25;2105723;28;20449;-52
2022/09/04 00:32:02;;;;;;;2.50;1.85;;;;;;;26.60;56.92;98768.19;2102381;28;20075;-51
2022/09/04 00:33:11;;;;;;;1.85;1.58;;;;;;;26.62;57.29;98768.78;2101711;28;20182;-52
2022/09/04 00:34:26;;;;;;;2.90;1.77;;;;;;;26.62;56.80;98772.31;2102931;28;20081;-50
2022/09/04 00:35:30;;;;;;;2.20;1.55;;;;;;;26.62;57.24;98771.50;2103325;28;20059;-49
2022/09/04 00:36:34;;;;;;;1.90;1.80;;;;;;;26.65;56.89;98781.88;2090549;28;20053;-49
2022/09/04 00:37:38;;;;;;;2.10;1.45;;;;;;;26.66;57.11;98775.34;2101152;28;20044;-49
2022/09/04 00:38:45;;;;;;;2.53;1.60;;;;;;;26.66;57.05;98783.50;2103159;28;20448;-52
2022/09/04 00:39:53;;;;;;;2.58;1.50;;;;;;;26.65;56.66;98782.69;2099545;28;20075;-51
2022/09/04 00:41:07;;;;;;;1.73;1.35;;;;;;;26.66;56.57;98795.25;2101463;28;20076;-49
2022/09/04 00:42:27;;;;;;;7.20;2.30;;;;;;;26.62;57.21;98804.16;2102886;28;21205;-49
2022/09/04 00:43:55;;;;;;;2.28;1.88;;;;;;;26.60;57.02;98803.56;2102421;28;20414;-51
2022/09/04 00:45:11;;;;;;;3.78;1.30;;;;;;;26.60;57.07;98814.44;2101000;28;20521;-49
2022/09/04 00:47:01;;;;;;;1.65;1.55;;;;;;;26.58;56.96;98819.31;2102942;28;20533;-49
2022/09/04 00:48:41;;;;;;;2.95;1.13;;;;;;;26.56;56.91;98826.91;2072347;28;20045;-51
2022/09/04 00:50:10;;;;;;;3.22;1.83;;;;;;;26.55;57.02;98822.53;2078863;28;20056;-50
2022/09/04 00:51:22;;;;;;;2.28;1.58;;;;;;;26.58;56.94;98825.59;2102463;28;20054;-49
2022/09/04 00:52:36;;;;;;;2.80;1.33;;;;;;;26.57;56.73;98823.13;2105941;28;20556;-49
2022/09/04 00:53:50;;;;;;;1.85;1.40;;;;;;;26.56;56.79;98816.84;2094474;28;20067;-49
2022/09/04 00:55:07;;;;;;;2.00;1.27;;;;;;;26.56;56.91;98818.75;2103583;28;20105;-52
2022/09/04 00:56:37;;;;;;;4.68;1.75;;;;;;;26.56;56.75;98818.75;2101734;28;20057;-49
2022/09/04 00:58:12;;;;;;;1.85;1.15;;;;;;;26.51;56.80;98828.47;2099392;28;20606;-48
2022/09/04 00:59:25;;;;;;;3.63;1.60;;;;;;;26.54;56.60;98826.34;2077342;28;20057;-51
2022/09/04 01:00:29;;;;;;;2.35;1.67;;;;;;;26.57;56.72;98828.56;2101376;28;20532;-49
2022/09/04 01:01:30;;;;;;;2.13;1.30;;;;;;;26.59;56.43;98832.66;2103703;28;20177;-49
2022/09/04 01:02:46;;;;;;;2.83;1.17;;;;;;;26.60;56.27;98822.59;2098769;27;20075;-49
2022/09/04 01:04:15;;;;;;;1.80;1.20;;;;;;;26.56;56.74;98827.75;2102385;27;20048;-52
2022/09/04 01:05:32;;;;;;;1.83;1.15;;;;;;;26.57;56.45;98834.00;2107002;28;20050;-48
2022/09/04 01:06:41;;;;;;;2.47;1.20;;;;;;;26.56;56.88;98833.19;2099545;28;20059;-54
2022/09/04 01:07:48;;;;;;;1.55;1.23;;;;;;;26.57;56.35;98834.00;2103937;28;20052;-49
2022/09/04 01:09:13;;;;;;;3.17;1.35;;;;;;;26.57;56.50;98836.72;2104646;28;20052;-52
2022/09/04 01:10:43;;;;;;;3.45;1.45;;;;;;;26.55;56.93;98836.97;2102770;28;20066;-49
2022/09/04 01:11:56;;;;;;;1.63;1.10;;;;;;;26.53;56.93;98844.56;2101648;28;20589;-50
2022/09/04 01:13:05;;;;;;;2.38;2.17;;;;;;;26.57;56.77;98842.97;2103162;28;20036;-50
2022/09/04 01:14:16;;;;;;;1.38;1.23;;;;;;;26.59;56.90;98842.75;2106040;28;20390;-50
2022/09/04 01:15:20;;;;;;;;;;;;;;;26.49;56.71;98841.50;2101761;27;20059;-49
2022/09/04 01:16:27;;;;;;;1.90;1.40;;;;;;;26.52;56.99;98846.47;2105921;28;20321;-50
2022/09/04 01:17:34;;;;;;;3.40;1.33;;;;;;;26.55;56.98;98833.41;2102747;28;20750;-49
2022/09/04 01:18:47;;;;;;;2.15;1.50;;;;;;;26.58;56.75;98841.06;2099219;27;20093;-48
2022/09/04 01:19:57;;;;;;;5.25;1.73;;;;;;;26.56;56.51;98840.53;2101234;28;20052;-48
2022/09/04 01:21:14;;;;;;;2.25;1.40;;;;;;;26.56;56.85;98835.91;2105152;27;20040;-49
2022/09/04 01:22:32;;;;;;;3.83;1.27;;;;;;;26.56;56.57;98835.91;2098234;28;20059;-51
2022/09/04 01:23:56;;;;;;;2.10;1.40;;;;;;;26.55;57.00;98838.84;2100976;28;20460;-48
2022/09/04 01:25:08;;;;;;;2.50;1.52;;;;;;;26.55;57.05;98831.53;2098428;27;20051;-50
2022/09/04 01:26:21;;;;;;;1.50;1.40;;;;;;;26.55;56.52;98831.53;2104064;28;20143;-46
2022/09/04 01:27:27;;;;;;;1.90;1.40;;;;;;;26.56;56.74;98824.19;2102924;28;20422;-49
2022/09/04 01:28:36;;;;;;;1.23;1.13;;;;;;;26.56;56.69;98832.34;2104418;28;20048;-51
2022/09/04 01:29:48;;;;;;;1.65;1.40;;;;;;;26.57;57.03;98834.00;2106791;28;20611;-49
2022/09/04 01:30:57;;;;;;;3.33;1.40;;;;;;;26.58;56.81;98835.63;2106810;27;20077;-49
2022/09/04 01:32:06;;;;;;;2.92;1.48;;;;;;;26.56;57.05;98829.63;2108559;28;20589;-49
2022/09/04 01:33:19;;;;;;;2.00;1.40;;;;;;;26.57;56.73;98828.56;2103182;28;20048;-49
2022/09/04 01:34:33;;;;;;;1.95;1.35;;;;;;;26.57;56.90;98823.13;2102192;28;20486;-50
2022/09/04 01:35:44;;;;;;;1.58;1.45;;;;;;;26.56;56.68;98816.84;2103915;28;20063;-49
2022/09/04 01:36:54;;;;;;;1.42;1.27;;;;;;;26.56;56.58;98821.47;2103047;28;20056;-51
2022/09/04 01:38:06;;;;;;;1.70;1.58;;;;;;;26.56;56.73;98825.03;2103534;28;20051;-49
2022/09/04 01:39:07;;;;;;;1.52;1.42;;;;;;;26.58;56.82;98824.75;2105911;28;20059;-49
2022/09/04 01:40:32;;;;;;;3.42;1.40;;;;;;;26.57;56.74;98821.22;2103385;28;20048;-49
2022/09/04 01:41:41;;;;;;;2.08;1.40;;;;;;;26.55;56.86;98826.09;2100421;28;20601;-49
2022/09/04 01:42:49;;;;;;;2.35;1.27;;;;;;;26.56;56.75;98819.56;2102378;28;20630;-51
2022/09/04 01:43:50;;;;;;;2.15;1.50;;;;;;;26.58;56.74;98819.31;2104880;28;20058;-49
2022/09/04 01:44:52;;;;;;;1.27;1.17;;;;;;;26.60;56.26;98817.16;2102061;28;20084;-50
2022/09/04 01:46:20;;;;;;;2.58;1.23;;;;;;;26.56;56.58;98816.03;2103874;28;20048;-51
2022/09/04 01:47:29;;;;;;;2.33;1.40;;;;;;;26.56;56.55;98813.31;2104509;28;20036;-49
2022/09/04 01:48:38;;;;;;;1.58;1.25;;;;;;;26.57;56.55;98812.22;2099569;28;21406;-49
2022/09/04 01:49:45;;;;;;;0.93;0.90;;;;;;;26.57;56.23;98814.94;2102788;28;20047;-52
2022/09/04 01:50:52;;;;;;;1.45;1.35;;;;;;;26.55;56.29;98808.94;2101911;28;20048;-50
2022/09/04 01:52:05;;;;;;;1.88;1.33;;;;;;;26.56;56.61;98810.59;2102830;28;20047;-46
2022/09/04 01:53:11;;;;;;;2.47;1.90;;;;;;;26.57;56.65;98810.34;2102292;28;20060;-50
2022/09/04 01:54:25;;;;;;;1.30;1.20;;;;;;;26.55;56.16;98804.34;2098580;28;20059;-50
2022/09/04 01:55:32;;;;;;;2.78;1.17;;;;;;;26.56;56.12;98808.69;2100845;28;20983;-48
2022/09/04 01:56:43;;;;;;;1.85;1.13;;;;;;;26.54;56.11;98802.69;2102716;28;20675;-49
2022/09/04 01:57:56;;;;;;;3.03;1.35;;;;;;;26.54;56.11;98807.31;2103909;28;20047;-54
2022/09/04 01:59:05;;;;;;;1.30;1.20;;;;;;;26.56;56.07;98805.16;2102937;28;20501;-50
2022/09/04 02:00:09;;;;;;;1.52;1.42;;;;;;;26.55;56.16;98811.66;2100203;28;20059;-50
2022/09/04 02:01:21;;;;;;;1.38;1.27;;;;;;;26.57;56.37;98812.22;2102850;28;20150;-49
2022/09/04 02:02:27;;;;;;;3.10;1.88;;;;;;;26.56;56.01;98811.41;2092391;28;20051;-50
2022/09/04 02:03:39;;;;;;;4.30;1.98;;;;;;;26.55;56.32;98811.66;2088008;28;20067;-49
2022/09/04 02:04:50;;;;;;;1.83;1.60;;;;;;;26.55;56.50;98804.34;2092904;28;20113;-50
2022/09/04 02:06:02;;;;;;;1.20;1.13;;;;;;;26.53;56.05;98801.03;2097934;28;20673;-50
2022/09/04 02:07:16;;;;;;;1.33;0.95;;;;;;;26.55;56.11;98806.22;2095526;28;20494;-48
2022/09/04 02:08:35;;;;;;;1.85;1.30;;;;;;;26.54;56.02;98808.13;2091268;28;20659;-50
2022/09/04 02:09:45;;;;;;;2.03;1.10;;;;;;;26.54;56.44;98801.84;2094691;28;20056;-51
2022/09/04 02:10:53;;;;;;;4.33;1.33;;;;;;;26.54;56.30;98807.31;2095237;28;20052;-51
2022/09/04 02:12:04;;;;;;;1.55;0.93;;;;;;;26.55;56.13;98803.50;2096483;28;20289;-50
2022/09/04 02:13:16;;;;;;;1.38;1.27;;;;;;;26.54;56.41;98808.13;2095281;28;20047;-49
2022/09/04 02:14:32;;;;;;;2.67;1.95;;;;;;;26.55;55.96;98819.81;2095212;28;21353;-51
2022/09/04 02:15:43;;;;;;;5.53;1.30;;;;;;;26.56;56.23;98816.03;2096001;28;20051;-50
2022/09/04 02:17:01;;;;;;;1.17;1.08;;;;;;;26.56;56.08;98807.88;2105435;28;20056;-51
2022/09/04 02:18:13;;;;;;;1.42;1.27;;;;;;;26.54;55.96;98805.41;2103885;28;20132;-50
2022/09/04 02:19:27;;;;;;;1.60;1.10;;;;;;;26.54;56.02;98793.69;2098317;28;21435;-51
2022/09/04 02:20:31;;;;;;;1.55;1.20;;;;;;;26.55;56.31;98807.06;2101774;27;20131;-50
2022/09/04 02:21:36;;;;;;;1.17;1.08;;;;;;;26.55;55.83;98806.22;2103934;28;20048;-49
2022/09/04 02:22:48;;;;;;;1.45;1.35;;;;;;;26.55;56.31;98811.66;2101047;28;20063;-50
2022/09/04 02:24:03;;;;;;;2.00;1.38;;;;;;;26.54;56.19;98807.31;2104293;28;20043;-51
2022/09/04 02:25:13;;;;;;;2.05;1.42;;;;;;;26.52;56.15;98811.09;2100626;28;20052;-50
2022/09/04 02:26:19;;;;;;;1.23;0.95;;;;;;;26.51;55.84;98800.47;2100220;28;20048;-51
2022/09/04 02:27:31;;;;;;;3.22;1.65;;;;;;;26.54;56.34;98810.03;2101587;28;20044;-51
2022/09/04 02:28:43;;;;;;;2.22;1.42;;;;;;;26.55;55.97;98811.66;2103146;28;20052;-50
2022/09/04 02:29:48;;;;;;;2.88;1.20;;;;;;;26.54;56.23;98807.31;2101752;28;20055;-52
2022/09/04 02:30:56;;;;;;;1.45;0.90;;;;;;;26.52;56.28;98802.94;2105330;28;20649;-50
2022/09/04 02:32:03;;;;;;;1.60;1.50;;;;;;;26.51;56.23;98793.13;2103905;28;20567;-50
2022/09/04 02:33:14;;;;;;;3.03;1.05;;;;;;;26.52;56.10;98804.81;2103209;28;20051;-51
2022/09/04 02:34:27;;;;;;;1.20;1.10;;;;;;;26.50;56.25;98796.94;2101553;28;20131;-50
2022/09/04 02:35:35;;;;;;;1.63;0.93;;;;;;;26.50;56.04;98791.47;2102466;28;20059;-53
2022/09/04 02:36:45;;;;;;;1.67;1.27;;;;;;;26.52;55.85;98800.22;2103150;28;20147;-51
2022/09/04 02:38:01;;;;;;;0.90;0.90;;;;;;;26.50;56.28;98796.94;2103618;28;20048;-51
2022/09/04 02:39:13;;;;;;;1.65;1.55;;;;;;;26.49;56.23;98797.13;2102582;28;20035;-50
2022/09/04 02:40:21;;;;;;;1.67;1.00;;;;;;;26.50;55.87;98796.06;2104145;28;20063;-51
2022/09/04 02:41:31;;;;;;;2.70;1.20;;;;;;;26.51;55.99;98792.31;2098080;28;20628;-52
2022/09/04 02:42:45;;;;;;;3.03;1.13;;;;;;;26.48;56.13;98799.03;2099995;28;20662;-52
2022/09/04 02:44:01;;;;;;;1.23;1.13;;;;;;;26.49;55.90;98795.25;2103390;28;21046;-51
2022/09/04 02:45:15;;;;;;;1.42;1.25;;;;;;;26.49;55.89;98797.97;2103581;28;20051;-53
2022/09/04 02:46:24;;;;;;;1.92;1.38;;;;;;;26.48;56.19;98799.03;2103025;28;20048;-49
2022/09/04 02:47:32;;;;;;;1.25;1.13;;;;;;;26.49;55.84;98802.56;2102861;28;20050;-50
2022/09/04 02:48:47;;;;;;;1.50;1.10;;;;;;;26.48;56.22;98804.47;2102591;28;20737;-50
2022/09/04 02:49:57;;;;;;;1.52;1.17;;;;;;;26.50;56.42;98804.22;2101275;28;20052;-51
2022/09/04 02:51:12;;;;;;;2.55;1.10;;;;;;;26.52;56.33;98811.09;2101145;28;20052;-50
2022/09/04 02:53:47;;;;;;;2.83;1.17;;;;;;;26.47;56.24;98802.84;2080611;28;20402;-50
2022/09/04 02:55:12;;;;;;;2.65;1.65;;;;;;;26.46;56.21;98801.19;2082451;28;20060;-47
2022/09/04 02:56:25;;;;;;;2.70;1.17;;;;;;;26.47;56.59;98802.03;2089455;28;20130;-49
2022/09/04 02:57:38;;;;;;;1.27;1.17;;;;;;;26.48;56.28;98811.81;2088975;28;21135;-50
2022/09/04 02:59:02;;;;;;;2.83;1.20;;;;;;;26.48;56.27;98819.97;2084808;28;20452;-47
2022/09/04 03:00:08;;;;;;;3.25;1.10;;;;;;;26.47;56.25;98821.06;2090477;28;20064;-47
2022/09/04 03:01:14;;;;;;;2.13;1.27;;;;;;;26.49;56.25;98822.47;2086489;28;20055;-48
2022/09/04 03:02:22;;;;;;;1.40;1.20;;;;;;;26.50;56.11;98823.28;2087099;28;20110;-48
2022/09/04 03:03:29;;;;;;;2.72;1.20;;;;;;;26.51;56.27;98817.59;2088922;28;20087;-52
2022/09/04 03:04:38;;;;;;;2.25;0.80;;;;;;;26.51;56.34;98819.50;2084251;28;20051;-48
2022/09/04 03:05:50;;;;;;;4.57;1.52;;;;;;;26.51;56.19;98814.06;2089162;28;20076;-49
2022/09/04 03:06:56;;;;;;;1.70;1.40;;;;;;;26.49;56.12;98811.59;2087047;28;20052;-51
2022/09/04 03:08:05;;;;;;;2.47;1.35;;;;;;;26.50;56.41;98810.53;2089241;28;20115;-46
2022/09/04 03:09:13;;;;;;;2.90;1.10;;;;;;;26.49;56.06;98813.44;2088249;28;20053;-48
2022/09/04 03:10:17;;;;;;;3.40;2.05;;;;;;;26.49;56.08;98806.13;2091652;28;20071;-50
2022/09/04 03:11:25;;;;;;;1.60;1.00;;;;;;;26.50;56.26;98812.41;2089179;28;20063;-47
2022/09/04 03:12:35;;;;;;;3.03;1.35;;;;;;;26.49;56.22;98808.00;2089577;28;22214;-51
2022/09/04 03:13:45;;;;;;;2.47;1.33;;;;;;;26.49;56.64;98814.28;2087415;28;20060;-51
2022/09/04 03:14:54;;;;;;;1.40;0.65;;;;;;;26.49;56.61;98813.44;2081518;28;20053;-49
2022/09/04 03:16:02;;;;;;;3.97;1.70;;;;;;;26.49;56.64;98811.59;2085997;28;20057;-48
2022/09/04 03:17:10;;;;;;;1.52;0.98;;;;;;;26.48;56.37;98814.53;2087200;28;20814;-49
2022/09/04 03:18:20;;;;;;;1.13;1.10;;;;;;;26.49;56.38;98810.72;2091872;28;20940;-46
2022/09/04 03:19:26;;;;;;;1.40;1.30;;;;;;;26.48;56.63;98812.63;2087006;28;20131;-47
2022/09/04 03:20:31;;;;;;;1.10;1.00;;;;;;;26.48;56.27;98803.66;2080717;28;20057;-53
2022/09/04 03:21:40;;;;;;;1.55;1.20;;;;;;;26.47;56.58;98811.00;2086376;28;20049;-49
2022/09/04 03:22:49;;;;;;;3.22;1.38;;;;;;;26.48;56.27;98809.91;2091710;28;20120;-48
2022/09/04 03:23:54;;;;;;;1.63;1.08;;;;;;;26.47;56.53;98805.56;2088919;28;20064;-47
2022/09/04 03:25:27;;;;;;;2.25;1.30;;;;;;;26.45;56.46;98809.59;2087700;28;20077;-51
2022/09/04 03:26:33;;;;;;;2.72;1.05;;;;;;;26.45;56.47;98810.41;2086419;28;20633;-51
2022/09/04 03:27:35;;;;;;;1.58;1.00;;;;;;;26.46;56.44;98817.50;2088355;28;20742;-49
2022/09/04 03:28:46;;;;;;;1.98;1.20;;;;;;;26.46;56.27;98812.06;2087715;28;20052;-48
2022/09/04 03:30:00;;;;;;;2.58;1.00;;;;;;;26.47;56.23;98819.16;2087476;28;20048;-52
2022/09/04 03:31:17;;;;;;;1.30;1.20;;;;;;;26.45;56.09;98820.47;2085568;28;20045;-48
2022/09/04 03:32:24;;;;;;;1.23;1.00;;;;;;;26.45;55.84;98818.56;2088629;28;20716;-47
2022/09/04 03:33:32;;;;;;;2.17;1.90;;;;;;;26.47;56.09;98815.63;2087627;28;20528;-50
2022/09/04 03:34:43;;;;;;;1.50;1.23;;;;;;;26.46;56.23;98814.78;2084146;28;20057;-49
2022/09/04 03:35:55;;;;;;;2.25;1.02;;;;;;;26.46;55.62;98816.69;2089835;28;20049;-52
2022/09/04 03:37:14;;;;;;;2.30;1.17;;;;;;;26.45;56.22;98812.31;2086312;28;20045;-52
2022/09/04 03:38:22;;;;;;;1.50;1.40;;;;;;;26.46;56.08;98801.19;2087360;28;20040;-49
2022/09/04 03:39:29;;;;;;;1.83;1.13;;;;;;;26.48;55.90;98809.09;2086184;28;20176;-56
2022/09/04 03:40:37;;;;;;;1.38;0.95;;;;;;;26.47;56.14;98811.00;2088120;28;20048;-49
2022/09/04 03:41:44;;;;;;;8.27;1.30;;;;;;;26.48;55.73;98820.78;2088272;28;20719;-48
2022/09/04 03:42:55;;;;;;;5.03;1.83;;;;;;;26.46;55.98;98822.94;2087198;28;20048;-56
2022/09/04 03:44:04;;;;;;;;;;;;;;;26.36;56.11;98824.72;2088012;28;20054;-51
2022/09/04 03:45:17;;;;;;;1.50;1.08;;;;;;;26.39;55.97;98814.16;2087950;28;19925;-51
2022/09/04 03:46:32;;;;;;;3.53;1.85;;;;;;;26.41;55.96;98814.72;2087854;28;20045;-50
2022/09/04 03:47:41;;;;;;;1.33;0.90;;;;;;;26.43;56.24;98811.75;2088399;28;20056;-56
2022/09/04 03:49:08;;;;;;;1.10;0.95;;;;;;;26.41;55.80;98806.56;2088798;28;20546;-50
2022/09/04 03:50:22;;;;;;;1.90;1.60;;;;;;;26.42;56.36;98810.09;2084946;28;20049;-49
2022/09/04 03:51:43;;;;;;;0.90;0.90;;;;;;;26.39;56.19;98808.72;2087510;28;21040;-53
2022/09/04 03:52:55;;;;;;;1.27;0.88;;;;;;;26.43;55.68;98812.56;2086638;28;20049;-54
2022/09/04 03:54:11;;;;;;;1.85;0.65;;;;;;;26.43;56.12;98812.56;2090035;28;20080;-55
2022/09/04 03:55:43;;;;;;;2.45;1.05;;;;;;;26.41;55.80;98816.59;2088654;28;20048;-53
2022/09/04 03:57:01;;;;;;;3.42;1.10;;;;;;;26.39;55.82;98827.75;2088816;28;20044;-50
2022/09/04 03:58:15;;;;;;;2.38;0.98;;;;;;;26.41;56.26;98828.31;2089527;28;20048;-50
2022/09/04 03:59:34;;;;;;;3.17;1.00;;;;;;;26.41;56.16;98833.75;2085675;28;20060;-49
2022/09/04 04:00:46;;;;;;;3.15;1.30;;;;;;;26.42;56.10;98831.88;2088330;28;20056;-51
2022/09/04 04:01:56;;;;;;;5.75;1.50;;;;;;;26.41;56.13;98836.47;2090924;28;20148;-49
2022/09/04 04:03:20;;;;;;;2.92;1.10;;;;;;;26.39;55.73;98838.63;2082668;28;20061;-50
2022/09/04 04:04:51;;;;;;;3.95;1.33;;;;;;;26.38;55.69;98842.41;2081854;28;20041;-53
2022/09/04 04:06:06;;;;;;;2.70;1.30;;;;;;;26.40;55.80;98845.69;2079965;28;20326;-51
2022/09/04 04:07:18;;;;;;;1.70;1.25;;;;;;;26.39;55.76;98846.78;2081062;28;20506;-51
2022/09/04 04:08:34;;;;;;;2.10;1.10;;;;;;;26.39;55.82;98848.69;2082892;28;20045;-49
2022/09/04 04:09:52;;;;;;;1.52;1.02;;;;;;;26.38;56.02;98853.28;2080916;28;20094;-49
2022/09/04 04:11:02;;;;;;;2.30;1.35;;;;;;;26.40;55.68;98856.56;2085523;28;20049;-50
2022/09/04 04:12:24;;;;;;;1.90;1.30;;;;;;;26.40;55.78;98855.75;2085802;28;20606;-53
2022/09/04 04:13:40;;;;;;;2.95;1.15;;;;;;;26.40;55.85;98853.84;2085684;28;20066;-52
2022/09/04 04:14:58;;;;;;;1.20;0.90;;;;;;;26.38;55.97;98847.84;2084402;28;20045;-52
2022/09/04 04:16:24;;;;;;;1.23;1.00;;;;;;;26.38;56.00;98847.03;2080270;28;20068;-49
2022/09/04 04:17:46;;;;;;;2.25;1.33;;;;;;;26.37;55.71;98840.75;2083242;28;20060;-52
2022/09/04 04:19:09;;;;;;;1.63;1.25;;;;;;;26.37;55.65;98846.19;2082455;28;24646;-50
2022/09/04 04:20:23;;;;;;;1.25;1.15;;;;;;;26.37;55.70;98831.78;2084367;28;20045;-51
2022/09/04 04:21:38;;;;;;;1.77;1.30;;;;;;;26.37;55.88;98839.94;2084373;28;20048;-51
2022/09/04 04:22:58;;;;;;;3.17;1.40;;;;;;;26.38;55.83;98836.97;2084527;28;20049;-53
2022/09/04 04:24:29;;;;;;;2.08;1.10;;;;;;;26.35;55.61;98831.19;2084036;28;20144;-51
2022/09/04 04:25:49;;;;;;;2.95;1.30;;;;;;;26.34;55.87;98835.00;2084397;28;20056;-51
2022/09/04 04:27:15;;;;;;;2.53;1.43;;;;;;;26.33;55.75;98834.19;2085037;28;20060;-52
2022/09/04 04:28:29;;;;;;;2.50;1.20;;;;;;;26.35;55.38;98842.91;2083111;28;20287;-54
2022/09/04 04:29:57;;;;;;;4.35;1.20;;;;;;;26.33;55.71;98845.06;2081247;28;20052;-51
2022/09/04 04:31:08;;;;;;;1.67;0.80;;;;;;;26.34;55.78;98846.69;2084385;28;20041;-51
2022/09/04 04:32:35;;;;;;;1.08;0.93;;;;;;;26.34;55.79;98849.41;2083370;28;20053;-51
2022/09/04 04:33:49;;;;;;;5.38;1.45;;;;;;;26.34;55.81;98852.13;2079734;28;20052;-48
2022/09/04 04:35:07;;;;;;;1.00;0.90;;;;;;;26.36;55.70;98858.16;2078386;28;20789;-50
2022/09/04 04:36:19;;;;;;;1.10;0.93;;;;;;;26.34;55.28;98852.13;2077351;28;20053;-52
2022/09/04 04:37:32;;;;;;;4.78;1.58;;;;;;;26.35;55.80;98848.34;2076683;28;20293;-52
2022/09/04 04:38:46;;;;;;;3.33;1.42;;;;;;;26.35;55.62;98853.78;2073245;28;20049;-50
2022/09/04 04:39:54;;;;;;;1.70;1.10;;;;;;;26.36;55.64;98855.44;2085343;28;20133;-49
2022/09/04 04:41:16;;;;;;;1.48;1.05;;;;;;;26.36;55.24;98855.44;2084978;28;20127;-48
2022/09/04 04:42:23;;;;;;;1.45;1.13;;;;;;;26.35;55.35;98859.22;2081348;28;20549;-50
2022/09/04 04:43:33;;;;;;;2.78;1.75;;;;;;;26.36;55.35;98863.59;2085138;28;20554;-50
2022/09/04 04:46:35;;;;;;;2.72;1.17;;;;;;;26.31;55.49;98863.53;2085048;28;20041;-52
2022/09/04 04:48:00;;;;;;;1.10;0.98;;;;;;;26.32;55.80;98865.16;2085111;28;20060;-51
2022/09/04 04:49:24;;;;;;;1.27;0.90;;;;;;;26.30;55.78;98861.88;2071863;28;22269;-48
2022/09/04 04:50:34;;;;;;;4.50;1.08;;;;;;;26.32;55.38;98850.75;2080748;28;20053;-52
2022/09/04 04:51:57;;;;;;;3.00;1.10;;;;;;;26.31;55.41;98849.91;2081039;28;20057;-50
2022/09/04 04:53:04;;;;;;;4.82;1.70;;;;;;;26.33;55.40;98850.50;2086083;28;20055;-51
2022/09/04 04:54:21;;;;;;;1.77;1.00;;;;;;;26.31;55.21;98858.09;2077172;28;20477;-50
2022/09/04 04:55:37;;;;;;;1.98;0.80;;;;;;;26.32;55.54;98853.47;2085096;28;20048;-52
2022/09/04 04:56:46;;;;;;;1.88;0.93;;;;;;;26.33;55.18;98860.53;2083265;28;20055;-51
2022/09/04 04:58:24;;;;;;;2.80;1.52;;;;;;;26.28;55.41;98853.97;2084422;28;20399;-49
2022/09/04 04:59:29;;;;;;;2.15;1.15;;;;;;;26.30;55.33;98856.44;2084293;28;20053;-52
2022/09/04 05:00:38;;;;;;;4.47;1.67;;;;;;;26.32;55.22;98856.19;2083297;28;20045;-50
2022/09/04 05:01:47;;;;;;;4.10;1.20;;;;;;;26.33;55.74;98857.81;2085155;28;20123;-50
2022/09/04 05:03:00;;;;;;;1.20;1.08;;;;;;;26.33;55.63;98850.50;2085335;28;20057;-51
2022/09/04 05:04:12;;;;;;;3.08;1.30;;;;;;;26.34;55.35;98852.13;2082089;28;20041;-49
2022/09/04 05:05:22;;;;;;;1.58;1.10;;;;;;;26.34;55.39;98856.75;2081179;28;20053;-50
2022/09/04 05:06:30;;;;;;;3.60;1.10;;;;;;;26.34;55.70;98848.59;2083514;28;21160;-50
2022/09/04 05:07:40;;;;;;;1.95;1.13;;;;;;;26.34;55.14;98852.13;2083514;28;20052;-50
2022/09/04 05:08:48;;;;;;;12.27;2.15;;;;;;;26.34;55.29;98843.16;2084946;28;20053;-52
2022/09/04 05:09:58;;;;;;;3.90;1.45;;;;;;;26.34;55.49;98843.97;2082213;28;20064;-52
2022/09/04 05:11:06;;;;;;;1.38;1.10;;;;;;;26.33;55.15;98838.78;2083009;28;20121;-52
2022/09/04 05:12:18;;;;;;;2.22;1.13;;;;;;;26.34;55.26;98840.44;2083684;28;20041;-50
2022/09/04 05:13:25;;;;;;;1.40;1.20;;;;;;;26.33;55.29;98839.63;2085101;28;20059;-48
2022/09/04 05:14:42;;;;;;;1.73;1.05;;;;;;;26.31;55.24;98833.59;2084832;28;20134;-51
2022/09/04 05:15:53;;;;;;;1.05;1.05;;;;;;;26.32;55.45;98837.97;2083386;28;20064;-52
2022/09/04 05:17:06;;;;;;;0.80;0.80;;;;;;;26.32;55.45;98831.72;2083026;28;20744;-56
2022/09/04 05:18:15;;;;;;;2.17;1.15;;;;;;;26.32;55.61;98839.88;2085334;28;20053;-50
2022/09/04 05:19:24;;;;;;;5.82;1.42;;;;;;;26.31;55.69;98833.59;2082553;28;20052;-52
2022/09/04 05:20:37;;;;;;;2.58;1.42;;;;;;;26.30;55.29;98837.41;2084415;28;20053;-53
2022/09/04 05:21:47;;;;;;;1.80;1.20;;;;;;;26.32;55.37;98834.41;2084897;28;20387;-51
2022/09/04 05:22:55;;;;;;;2.17;1.17;;;;;;;26.30;55.26;98834.69;2085077;28;20055;-50
2022/09/04 05:24:02;;;;;;;3.13;1.10;;;;;;;26.33;55.13;98826.03;2083089;28;20070;-51
2022/09/04 05:25:09;;;;;;;1.67;1.05;;;;;;;26.30;55.22;98824.63;2083328;28;20046;-49
2022/09/04 05:26:22;;;;;;;4.45;1.33;;;;;;;26.33;55.66;98823.31;2085110;28;20060;-52
2022/09/04 05:27:40;;;;;;;4.47;1.38;;;;;;;26.29;55.38;98822.16;2084857;28;20135;-53
2022/09/04 05:29:01;;;;;;;3.35;1.25;;;;;;;26.28;55.37;98826.78;2078816;28;20052;-52
2022/09/04 05:30:09;;;;;;;1.45;1.33;;;;;;;26.30;55.61;98823.81;2082081;28;20045;-52
2022/09/04 05:31:20;;;;;;;1.98;1.02;;;;;;;26.29;55.20;98824.88;2081276;28;20053;-51
2022/09/04 05:32:27;;;;;;;1.20;0.80;;;;;;;26.30;55.36;98824.63;2085582;28;20099;-52
2022/09/04 05:33:35;;;;;;;6.38;1.58;;;;;;;26.30;55.35;98823.81;2082848;28;20056;-52
2022/09/04 05:34:58;;;;;;;2.92;1.08;;;;;;;26.28;55.70;98825.94;2081547;28;20049;-50
2022/09/04 05:36:08;;;;;;;1.30;1.20;;;;;;;26.28;55.68;98821.34;2077669;28;20052;-50
2022/09/04 05:37:14;;;;;;;1.42;1.15;;;;;;;26.29;55.43;98822.97;2075920;28;20070;-51
2022/09/04 05:38:24;;;;;;;3.03;1.77;;;;;;;26.32;55.29;98826.28;2085017;28;20132;-49
2022/09/04 05:39:29;;;;;;;2.30;1.13;;;;;;;26.30;55.58;98827.34;2081978;28;20049;-54
2022/09/04 05:40:40;;;;;;;3.78;1.48;;;;;;;26.33;55.52;98839.63;2081455;28;20072;-56
2022/09/04 05:41:59;;;;;;;2.03;1.05;;;;;;;26.29;55.81;98824.88;2078916;28;20056;-52
2022/09/04 05:43:17;;;;;;;3.10;1.30;;;;;;;26.29;55.23;98831.13;2076059;28;20045;-55
2022/09/04 05:44:36;;;;;;;4.88;1.20;;;;;;;26.28;55.22;98828.66;2079965;28;20193;-56
2022/09/04 05:45:51;;;;;;;7.60;1.83;;;;;;;26.30;55.30;98831.97;2081796;28;20073;-52